Terminal Aerodrome Forecast
Issued by NWS

Home | Current Version | Previous Version | Text Only | Print | Product List | Glossary Off
Versions: 1 2 3 4 5 6 7 8 9 10 11 12 13 14 15

000
FTUS43 KFGF 171100
TAFBJI
TAF
KBJI 171120Z 1712/1812 32013KT P6SM SCT025 OVC070
     FM171500 33015G23KT P6SM OVC025
     FM180500 34005KT P6SM OVC015=

USA.gov is the U.S. government's official web portal to all federal, state and local government web resources and services.